sensor_id;sensor_type;location;lat;lon;timestamp;P1;durP1;ratioP1;P2;durP2;ratioP2
70953;SDS011;58618;47.490;8.736;2022-09-01T00:00:33;23.75;;;16.48;;
70953;SDS011;58618;47.490;8.736;2022-09-01T00:03:20;21.35;;;14.45;;
70953;SDS011;58618;47.490;8.736;2022-09-01T00:06:09;18.95;;;14.15;;
70953;SDS011;58618;47.490;8.736;2022-09-01T00:08:57;21.60;;;15.15;;
70953;SDS011;58618;47.490;8.736;2022-09-01T00:11:51;20.43;;;14.23;;
70953;SDS011;58618;47.490;8.736;2022-09-01T00:14:40;20.73;;;14.73;;
70953;SDS011;58618;47.490;8.736;2022-09-01T00:17:27;19.88;;;14.68;;
70953;SDS011;58618;47.490;8.736;2022-09-01T00:20:15;21.08;;;14.63;;
70953;SDS011;58618;47.490;8.736;2022-09-01T00:23:03;20.45;;;14.13;;
70953;SDS011;58618;47.490;8.736;2022-09-01T00:25:50;20.03;;;14.70;;
70953;SDS011;58618;47.490;8.736;2022-09-01T00:28:41;19.63;;;14.00;;
70953;SDS011;58618;47.490;8.736;2022-09-01T00:31:28;19.20;;;14.18;;
70953;SDS011;58618;47.490;8.736;2022-09-01T00:34:16;20.08;;;14.25;;
70953;SDS011;58618;47.490;8.736;2022-09-01T00:37:04;21.20;;;14.10;;
70953;SDS011;58618;47.490;8.736;2022-09-01T00:39:51;26.03;;;14.63;;
70953;SDS011;58618;47.490;8.736;2022-09-01T00:42:39;19.58;;;14.20;;
70953;SDS011;58618;47.490;8.736;2022-09-01T00:45:29;20.02;;;13.73;;
70953;SDS011;58618;47.490;8.736;2022-09-01T00:48:17;19.58;;;13.95;;
70953;SDS011;58618;47.490;8.736;2022-09-01T00:51:06;19.02;;;13.40;;
70953;SDS011;58618;47.490;8.736;2022-09-01T00:53:56;22.50;;;13.93;;
70953;SDS011;58618;47.490;8.736;2022-09-01T00:56:46;19.20;;;14.05;;
70953;SDS011;58618;47.490;8.736;2022-09-01T00:59:35;20.08;;;13.23;;
70953;SDS011;58618;47.490;8.736;2022-09-01T01:02:30;17.10;;;13.40;;
70953;SDS011;58618;47.490;8.736;2022-09-01T01:05:18;18.63;;;13.60;;
70953;SDS011;58618;47.490;8.736;2022-09-01T01:08:07;22.57;;;13.33;;
70953;SDS011;58618;47.490;8.736;2022-09-01T01:10:56;18.13;;;13.77;;
70953;SDS011;58618;47.490;8.736;2022-09-01T01:13:48;19.98;;;14.00;;
70953;SDS011;58618;47.490;8.736;2022-09-01T01:16:39;22.90;;;15.00;;
70953;SDS011;58618;47.490;8.736;2022-09-01T01:19:33;19.77;;;13.60;;
70953;SDS011;58618;47.490;8.736;2022-09-01T01:22:54;18.80;;;14.00;;
70953;SDS011;58618;47.490;8.736;2022-09-01T01:25:53;21.10;;;13.73;;
70953;SDS011;58618;47.490;8.736;2022-09-01T01:28:44;23.23;;;14.48;;
70953;SDS011;58618;47.490;8.736;2022-09-01T01:31:31;22.65;;;14.23;;
70953;SDS011;58618;47.490;8.736;2022-09-01T01:34:20;20.20;;;14.23;;
70953;SDS011;58618;47.490;8.736;2022-09-01T01:37:08;21.47;;;15.33;;
70953;SDS011;58618;47.490;8.736;2022-09-01T01:39:58;21.20;;;14.05;;
70953;SDS011;58618;47.490;8.736;2022-09-01T01:42:49;22.27;;;15.85;;
70953;SDS011;58618;47.490;8.736;2022-09-01T01:45:37;25.63;;;16.10;;
70953;SDS011;58618;47.490;8.736;2022-09-01T01:48:25;25.80;;;15.43;;
70953;SDS011;58618;47.490;8.736;2022-09-01T01:51:13;23.23;;;15.77;;
70953;SDS011;58618;47.490;8.736;2022-09-01T01:54:05;24.38;;;15.05;;
70953;SDS011;58618;47.490;8.736;2022-09-01T01:56:52;19.63;;;14.77;;
70953;SDS011;58618;47.490;8.736;2022-09-01T01:59:41;20.25;;;14.40;;
70953;SDS011;58618;47.490;8.736;2022-09-01T02:02:29;20.17;;;13.98;;
70953;SDS011;58618;47.490;8.736;2022-09-01T02:05:18;20.90;;;14.77;;
70953;SDS011;58618;47.490;8.736;2022-09-01T02:08:10;25.55;;;16.27;;
70953;SDS011;58618;47.490;8.736;2022-09-01T02:10:58;24.08;;;15.13;;
70953;SDS011;58618;47.490;8.736;2022-09-01T02:13:45;22.35;;;15.30;;
70953;SDS011;58618;47.490;8.736;2022-09-01T02:16:35;26.38;;;16.00;;
70953;SDS011;58618;47.490;8.736;2022-09-01T02:19:23;30.00;;;17.87;;
70953;SDS011;58618;47.490;8.736;2022-09-01T02:22:10;25.90;;;17.73;;
70953;SDS011;58618;47.490;8.736;2022-09-01T02:24:57;26.25;;;18.05;;
70953;SDS011;58618;47.490;8.736;2022-09-01T02:27:45;31.42;;;18.33;;
70953;SDS011;58618;47.490;8.736;2022-09-01T02:30:35;33.88;;;21.55;;
70953;SDS011;58618;47.490;8.736;2022-09-01T02:33:26;29.97;;;19.63;;
70953;SDS011;58618;47.490;8.736;2022-09-01T02:36:16;31.38;;;19.88;;
70953;SDS011;58618;47.490;8.736;2022-09-01T02:39:05;32.80;;;20.73;;
70953;SDS011;58618;47.490;8.736;2022-09-01T02:41:52;32.40;;;21.42;;
70953;SDS011;58618;47.490;8.736;2022-09-01T02:44:40;32.33;;;21.08;;
70953;SDS011;58618;47.490;8.736;2022-09-01T02:47:28;28.37;;;19.23;;
70953;SDS011;58618;47.490;8.736;2022-09-01T02:50:17;36.00;;;19.17;;
70953;SDS011;58618;47.490;8.736;2022-09-01T02:53:04;28.63;;;19.48;;
70953;SDS011;58618;47.490;8.736;2022-09-01T02:55:54;32.45;;;20.63;;
70953;SDS011;58618;47.490;8.736;2022-09-01T02:58:45;30.30;;;20.55;;
70953;SDS011;58618;47.490;8.736;2022-09-01T03:01:33;29.63;;;20.00;;
70953;SDS011;58618;47.490;8.736;2022-09-01T03:04:21;29.17;;;20.52;;
70953;SDS011;58618;47.490;8.736;2022-09-01T03:07:10;29.75;;;20.38;;
70953;SDS011;58618;47.490;8.736;2022-09-01T03:09:58;30.98;;;20.10;;
70953;SDS011;58618;47.490;8.736;2022-09-01T03:12:48;33.42;;;20.38;;
70953;SDS011;58618;47.490;8.736;2022-09-01T03:15:35;26.97;;;19.50;;
70953;SDS011;58618;47.490;8.736;2022-09-01T03:18:23;28.13;;;20.70;;
70953;SDS011;58618;47.490;8.736;2022-09-01T03:21:10;28.55;;;19.30;;
70953;SDS011;58618;47.490;8.736;2022-09-01T03:24:03;24.92;;;18.63;;
70953;SDS011;58618;47.490;8.736;2022-09-01T03:26:50;26.00;;;18.20;;
70953;SDS011;58618;47.490;8.736;2022-09-01T03:29:38;24.37;;;17.70;;
70953;SDS011;58618;47.490;8.736;2022-09-01T03:32:25;25.00;;;18.35;;
70953;SDS011;58618;47.490;8.736;2022-09-01T03:35:14;24.15;;;17.52;;
70953;SDS011;58618;47.490;8.736;2022-09-01T03:38:02;26.80;;;18.17;;
70953;SDS011;58618;47.490;8.736;2022-09-01T03:40:52;28.77;;;17.83;;
70953;SDS011;58618;47.490;8.736;2022-09-01T03:43:44;26.47;;;18.47;;
70953;SDS011;58618;47.490;8.736;2022-09-01T03:46:32;30.50;;;18.80;;
70953;SDS011;58618;47.490;8.736;2022-09-01T03:49:20;31.27;;;19.58;;
70953;SDS011;58618;47.490;8.736;2022-09-01T03:52:12;25.70;;;18.38;;
70953;SDS011;58618;47.490;8.736;2022-09-01T03:55:00;25.58;;;19.00;;
70953;SDS011;58618;47.490;8.736;2022-09-01T03:57:49;28.43;;;19.00;;
70953;SDS011;58618;47.490;8.736;2022-09-01T04:00:38;30.60;;;19.33;;
70953;SDS011;58618;47.490;8.736;2022-09-01T04:03:28;26.73;;;19.52;;
70953;SDS011;58618;47.490;8.736;2022-09-01T04:06:19;27.77;;;19.50;;
70953;SDS011;58618;47.490;8.736;2022-09-01T04:09:08;28.58;;;19.27;;
70953;SDS011;58618;47.490;8.736;2022-09-01T04:11:56;28.10;;;18.30;;
70953;SDS011;58618;47.490;8.736;2022-09-01T04:14:45;26.73;;;18.10;;
70953;SDS011;58618;47.490;8.736;2022-09-01T04:17:33;26.85;;;18.65;;
70953;SDS011;58618;47.490;8.736;2022-09-01T04:20:38;27.67;;;18.90;;
70953;SDS011;58618;47.490;8.736;2022-09-01T04:23:34;28.13;;;19.15;;
70953;SDS011;58618;47.490;8.736;2022-09-01T04:26:22;27.43;;;18.67;;
70953;SDS011;58618;47.490;8.736;2022-09-01T04:29:13;25.45;;;18.17;;
70953;SDS011;58618;47.490;8.736;2022-09-01T04:32:08;25.75;;;18.33;;
70953;SDS011;58618;47.490;8.736;2022-09-01T04:34:57;27.80;;;19.52;;
70953;SDS011;58618;47.490;8.736;2022-09-01T04:37:46;25.33;;;18.45;;
70953;SDS011;58618;47.490;8.736;2022-09-01T04:40:36;24.73;;;18.47;;
70953;SDS011;58618;47.490;8.736;2022-09-01T04:43:24;24.40;;;17.15;;
70953;SDS011;58618;47.490;8.736;2022-09-01T04:46:11;26.80;;;18.42;;
70953;SDS011;58618;47.490;8.736;2022-09-01T04:49:00;25.02;;;17.83;;
70953;SDS011;58618;47.490;8.736;2022-09-01T04:51:51;27.27;;;17.83;;
70953;SDS011;58618;47.490;8.736;2022-09-01T04:54:39;23.70;;;17.63;;
70953;SDS011;58618;47.490;8.736;2022-09-01T04:57:26;27.73;;;18.50;;
70953;SDS011;58618;47.490;8.736;2022-09-01T05:00:14;28.10;;;18.75;;
70953;SDS011;58618;47.490;8.736;2022-09-01T05:03:08;24.17;;;17.40;;
70953;SDS011;58618;47.490;8.736;2022-09-01T05:05:56;26.48;;;16.77;;
70953;SDS011;58618;47.490;8.736;2022-09-01T05:08:46;24.83;;;17.20;;
70953;SDS011;58618;47.490;8.736;2022-09-01T05:11:33;25.80;;;18.63;;
70953;SDS011;58618;47.490;8.736;2022-09-01T05:14:22;27.08;;;17.95;;
70953;SDS011;58618;47.490;8.736;2022-09-01T05:17:11;25.83;;;18.50;;
70953;SDS011;58618;47.490;8.736;2022-09-01T05:19:59;24.80;;;17.80;;
70953;SDS011;58618;47.490;8.736;2022-09-01T05:22:48;26.53;;;18.17;;
70953;SDS011;58618;47.490;8.736;2022-09-01T05:25:36;25.15;;;18.30;;
70953;SDS011;58618;47.490;8.736;2022-09-01T05:28:25;25.52;;;17.90;;
70953;SDS011;58618;47.490;8.736;2022-09-01T05:31:14;28.73;;;18.88;;
70953;SDS011;58618;47.490;8.736;2022-09-01T05:34:04;26.38;;;17.73;;
70953;SDS011;58618;47.490;8.736;2022-09-01T05:36:53;24.43;;;17.73;;
70953;SDS011;58618;47.490;8.736;2022-09-01T05:39:44;26.05;;;18.33;;
70953;SDS011;58618;47.490;8.736;2022-09-01T05:42:31;26.20;;;17.90;;
70953;SDS011;58618;47.490;8.736;2022-09-01T05:45:19;26.25;;;18.15;;
70953;SDS011;58618;47.490;8.736;2022-09-01T05:48:08;22.13;;;17.40;;
70953;SDS011;58618;47.490;8.736;2022-09-01T05:50:57;26.13;;;18.90;;
70953;SDS011;58618;47.490;8.736;2022-09-01T05:53:44;26.05;;;17.90;;
70953;SDS011;58618;47.490;8.736;2022-09-01T05:56:37;22.60;;;17.27;;
70953;SDS011;58618;47.490;8.736;2022-09-01T05:59:26;22.35;;;16.85;;
70953;SDS011;58618;47.490;8.736;2022-09-01T06:02:16;22.80;;;16.40;;
70953;SDS011;58618;47.490;8.736;2022-09-01T06:05:04;23.57;;;16.17;;
70953;SDS011;58618;47.490;8.736;2022-09-01T06:07:51;23.08;;;16.00;;
70953;SDS011;58618;47.490;8.736;2022-09-01T06:10:40;23.42;;;16.52;;
70953;SDS011;58618;47.490;8.736;2022-09-01T06:13:28;24.60;;;16.27;;
70953;SDS011;58618;47.490;8.736;2022-09-01T06:16:16;19.85;;;15.52;;
70953;SDS011;58618;47.490;8.736;2022-09-01T06:19:04;24.43;;;15.83;;
70953;SDS011;58618;47.490;8.736;2022-09-01T06:21:52;21.33;;;15.90;;
70953;SDS011;58618;47.490;8.736;2022-09-01T06:24:41;21.30;;;16.48;;
70953;SDS011;58618;47.490;8.736;2022-09-01T06:27:28;23.67;;;16.30;;
70953;SDS011;58618;47.490;8.736;2022-09-01T06:30:17;26.67;;;16.50;;
70953;SDS011;58618;47.490;8.736;2022-09-01T06:33:08;21.37;;;15.93;;
70953;SDS011;58618;47.490;8.736;2022-09-01T06:35:59;19.90;;;14.25;;
70953;SDS011;58618;47.490;8.736;2022-09-01T06:38:48;20.30;;;15.43;;
70953;SDS011;58618;47.490;8.736;2022-09-01T06:41:37;20.60;;;14.90;;
70953;SDS011;58618;47.490;8.736;2022-09-01T06:44:24;21.88;;;15.02;;
70953;SDS011;58618;47.490;8.736;2022-09-01T06:47:13;19.80;;;14.90;;
70953;SDS011;58618;47.490;8.736;2022-09-01T06:50:01;19.90;;;13.95;;
70953;SDS011;58618;47.490;8.736;2022-09-01T06:52:48;19.23;;;13.18;;
70953;SDS011;58618;47.490;8.736;2022-09-01T06:55:53;17.63;;;13.48;;
70953;SDS011;58618;47.490;8.736;2022-09-01T06:58:41;18.88;;;13.93;;
70953;SDS011;58618;47.490;8.736;2022-09-01T07:01:33;21.27;;;13.80;;
70953;SDS011;58618;47.490;8.736;2022-09-01T07:04:22;18.35;;;12.45;;
70953;SDS011;58618;47.490;8.736;2022-09-01T07:07:09;18.50;;;13.20;;
70953;SDS011;58618;47.490;8.736;2022-09-01T07:09:57;16.55;;;12.77;;
70953;SDS011;58618;47.490;8.736;2022-09-01T07:12:45;15.77;;;12.52;;
70953;SDS011;58618;47.490;8.736;2022-09-01T07:15:36;16.93;;;12.00;;
70953;SDS011;58618;47.490;8.736;2022-09-01T07:18:25;16.50;;;11.93;;
70953;SDS011;58618;47.490;8.736;2022-09-01T07:21:14;16.50;;;11.75;;
70953;SDS011;58618;47.490;8.736;2022-09-01T07:24:01;15.27;;;11.05;;
70953;SDS011;58618;47.490;8.736;2022-09-01T07:26:50;15.43;;;11.20;;
70953;SDS011;58618;47.490;8.736;2022-09-01T07:29:38;13.57;;;10.77;;
70953;SDS011;58618;47.490;8.736;2022-09-01T07:32:25;16.15;;;10.88;;
70953;SDS011;58618;47.490;8.736;2022-09-01T07:35:13;15.77;;;10.85;;
70953;SDS011;58618;47.490;8.736;2022-09-01T07:38:04;15.30;;;11.43;;
70953;SDS011;58618;47.490;8.736;2022-09-01T07:40:52;16.00;;;11.10;;
70953;SDS011;58618;47.490;8.736;2022-09-01T07:43:40;14.50;;;9.93;;
70953;SDS011;58618;47.490;8.736;2022-09-01T07:46:29;16.48;;;10.93;;
70953;SDS011;58618;47.490;8.736;2022-09-01T07:49:18;13.35;;;9.48;;
70953;SDS011;58618;47.490;8.736;2022-09-01T07:52:05;13.60;;;9.23;;
70953;SDS011;58618;47.490;8.736;2022-09-01T07:54:54;11.38;;;8.95;;
70953;SDS011;58618;47.490;8.736;2022-09-01T07:57:42;10.50;;;8.17;;
70953;SDS011;58618;47.490;8.736;2022-09-01T08:00:31;12.35;;;8.68;;
70953;SDS011;58618;47.490;8.736;2022-09-01T08:03:19;10.45;;;8.32;;
70953;SDS011;58618;47.490;8.736;2022-09-01T08:06:10;10.95;;;8.68;;
70953;SDS011;58618;47.490;8.736;2022-09-01T08:08:59;11.07;;;8.93;;
70953;SDS011;58618;47.490;8.736;2022-09-01T08:11:48;10.60;;;7.90;;
70953;SDS011;58618;47.490;8.736;2022-09-01T08:14:35;11.18;;;8.70;;
70953;SDS011;58618;47.490;8.736;2022-09-01T08:17:23;10.63;;;8.30;;
70953;SDS011;58618;47.490;8.736;2022-09-01T08:20:10;10.20;;;8.38;;
70953;SDS011;58618;47.490;8.736;2022-09-01T08:22:58;11.35;;;8.15;;
70953;SDS011;58618;47.490;8.736;2022-09-01T08:25:45;11.10;;;8.50;;
70953;SDS011;58618;47.490;8.736;2022-09-01T08:28:34;10.45;;;8.38;;
70953;SDS011;58618;47.490;8.736;2022-09-01T08:31:23;10.05;;;8.38;;
70953;SDS011;58618;47.490;8.736;2022-09-01T08:34:11;10.48;;;8.18;;
70953;SDS011;58618;47.490;8.736;2022-09-01T08:36:59;10.30;;;8.48;;
70953;SDS011;58618;47.490;8.736;2022-09-01T08:39:46;8.43;;;6.80;;
70953;SDS011;58618;47.490;8.736;2022-09-01T08:42:38;8.55;;;6.50;;
70953;SDS011;58618;47.490;8.736;2022-09-01T08:45:39;10.15;;;7.30;;
70953;SDS011;58618;47.490;8.736;2022-09-01T08:48:33;9.00;;;7.38;;
70953;SDS011;58618;47.490;8.736;2022-09-01T08:51:25;10.00;;;6.78;;
70953;SDS011;58618;47.490;8.736;2022-09-01T08:54:20;8.50;;;7.13;;
70953;SDS011;58618;47.490;8.736;2022-09-01T08:57:13;10.95;;;7.47;;
70953;SDS011;58618;47.490;8.736;2022-09-01T09:00:05;11.13;;;7.20;;
70953;SDS011;58618;47.490;8.736;2022-09-01T09:02:59;10.73;;;7.22;;
70953;SDS011;58618;47.490;8.736;2022-09-01T09:06:02;9.25;;;7.03;;
70953;SDS011;58618;47.490;8.736;2022-09-01T09:08:59;8.07;;;6.90;;
70953;SDS011;58618;47.490;8.736;2022-09-01T09:11:57;10.88;;;6.70;;
70953;SDS011;58618;47.490;8.736;2022-09-01T09:15:04;12.05;;;7.55;;
70953;SDS011;58618;47.490;8.736;2022-09-01T09:18:03;8.15;;;6.80;;
70953;SDS011;58618;47.490;8.736;2022-09-01T09:20:59;8.20;;;6.45;;
70953;SDS011;58618;47.490;8.736;2022-09-01T09:23:53;8.17;;;5.83;;
70953;SDS011;58618;47.490;8.736;2022-09-01T09:26:46;8.65;;;6.45;;
70953;SDS011;58618;47.490;8.736;2022-09-01T09:29:34;8.80;;;6.20;;
70953;SDS011;58618;47.490;8.736;2022-09-01T09:32:22;8.02;;;6.53;;
70953;SDS011;58618;47.490;8.736;2022-09-01T09:35:20;8.20;;;6.18;;
70953;SDS011;58618;47.490;8.736;2022-09-01T09:38:20;6.53;;;5.80;;
70953;SDS011;58618;47.490;8.736;2022-09-01T09:41:14;7.25;;;5.50;;
70953;SDS011;58618;47.490;8.736;2022-09-01T09:44:04;6.60;;;5.18;;
70953;SDS011;58618;47.490;8.736;2022-09-01T09:47:00;8.05;;;6.10;;
70953;SDS011;58618;47.490;8.736;2022-09-01T09:49:47;8.07;;;5.90;;
70953;SDS011;58618;47.490;8.736;2022-09-01T09:52:38;8.10;;;5.60;;
70953;SDS011;58618;47.490;8.736;2022-09-01T09:55:26;8.55;;;6.35;;
70953;SDS011;58618;47.490;8.736;2022-09-01T09:58:15;7.32;;;5.85;;
70953;SDS011;58618;47.490;8.736;2022-09-01T10:01:04;8.63;;;5.68;;
70953;SDS011;58618;47.490;8.736;2022-09-01T10:03:56;8.30;;;5.82;;
70953;SDS011;58618;47.490;8.736;2022-09-01T10:06:49;7.07;;;5.93;;
70953;SDS011;58618;47.490;8.736;2022-09-01T10:09:39;7.68;;;5.88;;
70953;SDS011;58618;47.490;8.736;2022-09-01T10:15:57;8.13;;;5.85;;
70953;SDS011;58618;47.490;8.736;2022-09-01T10:18:47;8.13;;;5.80;;
70953;SDS011;58618;47.490;8.736;2022-09-01T10:21:37;6.33;;;4.77;;
70953;SDS011;58618;47.490;8.736;2022-09-01T10:24:28;6.07;;;5.22;;
70953;SDS011;58618;47.490;8.736;2022-09-01T10:27:20;5.68;;;4.72;;
70953;SDS011;58618;47.490;8.736;2022-09-01T10:30:24;6.32;;;4.60;;
70953;SDS011;58618;47.490;8.736;2022-09-01T10:33:13;5.35;;;4.15;;
70953;SDS011;58618;47.490;8.736;2022-09-01T10:36:02;4.87;;;4.37;;
70953;SDS011;58618;47.490;8.736;2022-09-01T10:38:52;5.78;;;4.00;;
70953;SDS011;58618;47.490;8.736;2022-09-01T10:44:56;4.75;;;3.78;;
70953;SDS011;58618;47.490;8.736;2022-09-01T10:47:47;4.40;;;3.85;;
70953;SDS011;58618;47.490;8.736;2022-09-01T10:50:35;4.27;;;3.73;;
70953;SDS011;58618;47.490;8.736;2022-09-01T10:56:36;4.38;;;3.95;;
70953;SDS011;58618;47.490;8.736;2022-09-01T10:59:26;4.13;;;3.70;;
70953;SDS011;58618;47.490;8.736;2022-09-01T11:02:17;4.45;;;3.75;;
70953;SDS011;58618;47.490;8.736;2022-09-01T11:05:11;5.20;;;3.87;;
70953;SDS011;58618;47.490;8.736;2022-09-01T11:11:14;6.28;;;4.20;;
70953;SDS011;58618;47.490;8.736;2022-09-01T11:14:16;5.53;;;3.80;;
70953;SDS011;58618;47.490;8.736;2022-09-01T11:17:11;3.53;;;2.83;;
70953;SDS011;58618;47.490;8.736;2022-09-01T11:20:05;3.50;;;3.20;;
70953;SDS011;58618;47.490;8.736;2022-09-01T11:23:00;4.38;;;3.40;;
70953;SDS011;58618;47.490;8.736;2022-09-01T11:25:50;3.90;;;3.25;;
70953;SDS011;58618;47.490;8.736;2022-09-01T11:28:41;4.07;;;3.53;;
70953;SDS011;58618;47.490;8.736;2022-09-01T11:31:30;3.53;;;3.22;;
70953;SDS011;58618;47.490;8.736;2022-09-01T11:34:24;3.40;;;3.10;;
70953;SDS011;58618;47.490;8.736;2022-09-01T11:37:15;3.88;;;3.40;;
70953;SDS011;58618;47.490;8.736;2022-09-01T11:40:06;4.40;;;2.83;;
70953;SDS011;58618;47.490;8.736;2022-09-01T11:42:55;5.25;;;3.10;;
70953;SDS011;58618;47.490;8.736;2022-09-01T11:45:49;3.95;;;2.80;;
70953;SDS011;58618;47.490;8.736;2022-09-01T11:48:48;5.53;;;3.47;;
70953;SDS011;58618;47.490;8.736;2022-09-01T11:51:48;4.30;;;3.70;;
70953;SDS011;58618;47.490;8.736;2022-09-01T11:54:37;4.70;;;3.28;;
70953;SDS011;58618;47.490;8.736;2022-09-01T11:57:28;3.30;;;2.95;;
70953;SDS011;58618;47.490;8.736;2022-09-01T12:00:24;5.30;;;3.28;;
70953;SDS011;58618;47.490;8.736;2022-09-01T12:03:20;5.13;;;3.07;;
70953;SDS011;58618;47.490;8.736;2022-09-01T12:06:09;5.38;;;3.40;;
70953;SDS011;58618;47.490;8.736;2022-09-01T12:09:00;4.85;;;3.45;;
70953;SDS011;58618;47.490;8.736;2022-09-01T12:11:50;4.07;;;3.53;;
70953;SDS011;58618;47.490;8.736;2022-09-01T12:14:37;6.72;;;3.97;;
70953;SDS011;58618;47.490;8.736;2022-09-01T12:17:25;5.03;;;3.80;;
70953;SDS011;58618;47.490;8.736;2022-09-01T12:20:20;4.68;;;3.50;;
70953;SDS011;58618;47.490;8.736;2022-09-01T12:23:15;3.75;;;3.25;;
70953;SDS011;58618;47.490;8.736;2022-09-01T12:26:10;4.75;;;3.45;;
70953;SDS011;58618;47.490;8.736;2022-09-01T12:29:01;6.07;;;3.95;;
70953;SDS011;58618;47.490;8.736;2022-09-01T12:31:48;4.17;;;3.47;;
70953;SDS011;58618;47.490;8.736;2022-09-01T12:34:38;4.95;;;3.45;;
70953;SDS011;58618;47.490;8.736;2022-09-01T12:37:27;3.80;;;3.20;;
70953;SDS011;58618;47.490;8.736;2022-09-01T12:40:22;4.07;;;2.75;;
70953;SDS011;58618;47.490;8.736;2022-09-01T12:43:11;4.75;;;3.60;;
70953;SDS011;58618;47.490;8.736;2022-09-01T12:46:34;4.43;;;3.53;;
70953;SDS011;58618;47.490;8.736;2022-09-01T12:49:36;3.97;;;3.47;;
70953;SDS011;58618;47.490;8.736;2022-09-01T12:52:25;5.55;;;3.50;;
70953;SDS011;58618;47.490;8.736;2022-09-01T12:55:16;4.35;;;3.40;;
70953;SDS011;58618;47.490;8.736;2022-09-01T12:58:05;3.97;;;3.53;;
70953;SDS011;58618;47.490;8.736;2022-09-01T13:00:55;4.43;;;3.77;;
70953;SDS011;58618;47.490;8.736;2022-09-01T13:06:59;4.40;;;3.65;;
70953;SDS011;58618;47.490;8.736;2022-09-01T13:09:48;4.60;;;3.42;;
70953;SDS011;58618;47.490;8.736;2022-09-01T13:12:37;4.43;;;3.20;;
70953;SDS011;58618;47.490;8.736;2022-09-01T13:15:26;4.80;;;4.00;;
70953;SDS011;58618;47.490;8.736;2022-09-01T13:18:16;3.95;;;3.42;;
70953;SDS011;58618;47.490;8.736;2022-09-01T13:21:06;3.75;;;3.35;;
70953;SDS011;58618;47.490;8.736;2022-09-01T13:23:54;3.60;;;3.30;;
70953;SDS011;58618;47.490;8.736;2022-09-01T13:26:41;4.47;;;3.22;;
70953;SDS011;58618;47.490;8.736;2022-09-01T13:29:31;3.53;;;2.97;;
70953;SDS011;58618;47.490;8.736;2022-09-01T13:32:19;3.00;;;2.70;;
70953;SDS011;58618;47.490;8.736;2022-09-01T13:35:08;5.85;;;3.33;;
70953;SDS011;58618;47.490;8.736;2022-09-01T13:37:57;4.15;;;3.40;;
70953;SDS011;58618;47.490;8.736;2022-09-01T13:40:45;3.95;;;3.25;;
70953;SDS011;58618;47.490;8.736;2022-09-01T13:43:34;4.10;;;3.40;;
70953;SDS011;58618;47.490;8.736;2022-09-01T13:46:21;3.75;;;3.45;;
70953;SDS011;58618;47.490;8.736;2022-09-01T13:49:08;3.63;;;3.28;;
70953;SDS011;58618;47.490;8.736;2022-09-01T13:51:56;3.70;;;3.35;;
70953;SDS011;58618;47.490;8.736;2022-09-01T13:54:45;3.78;;;3.20;;
70953;SDS011;58618;47.490;8.736;2022-09-01T13:57:32;5.90;;;3.80;;
70953;SDS011;58618;47.490;8.736;2022-09-01T14:00:21;5.05;;;3.38;;
70953;SDS011;58618;47.490;8.736;2022-09-01T14:03:11;4.18;;;3.72;;
70953;SDS011;58618;47.490;8.736;2022-09-01T14:06:03;4.45;;;3.35;;
70953;SDS011;58618;47.490;8.736;2022-09-01T14:08:53;4.55;;;3.13;;
70953;SDS011;58618;47.490;8.736;2022-09-01T14:11:41;3.70;;;2.90;;
70953;SDS011;58618;47.490;8.736;2022-09-01T14:14:32;3.30;;;2.95;;
70953;SDS011;58618;47.490;8.736;2022-09-01T14:17:20;3.10;;;2.80;;
70953;SDS011;58618;47.490;8.736;2022-09-01T14:20:09;3.40;;;2.92;;
70953;SDS011;58618;47.490;8.736;2022-09-01T14:22:58;3.30;;;2.72;;
70953;SDS011;58618;47.490;8.736;2022-09-01T14:25:46;5.17;;;3.17;;
70953;SDS011;58618;47.490;8.736;2022-09-01T14:28:37;3.65;;;3.05;;
70953;SDS011;58618;47.490;8.736;2022-09-01T14:31:25;3.75;;;3.20;;
70953;SDS011;58618;47.490;8.736;2022-09-01T14:34:14;3.33;;;3.03;;
70953;SDS011;58618;47.490;8.736;2022-09-01T14:37:04;3.40;;;3.10;;
70953;SDS011;58618;47.490;8.736;2022-09-01T14:39:53;4.00;;;3.40;;
70953;SDS011;58618;47.490;8.736;2022-09-01T14:42:42;3.60;;;3.20;;
70953;SDS011;58618;47.490;8.736;2022-09-01T14:45:33;3.20;;;2.90;;
70953;SDS011;58618;47.490;8.736;2022-09-01T14:48:21;3.20;;;2.58;;
70953;SDS011;58618;47.490;8.736;2022-09-01T14:51:08;4.95;;;3.13;;
70953;SDS011;58618;47.490;8.736;2022-09-01T14:54:07;3.67;;;3.00;;
70953;SDS011;58618;47.490;8.736;2022-09-01T14:56:54;5.80;;;2.88;;
70953;SDS011;58618;47.490;8.736;2022-09-01T14:59:41;3.70;;;3.03;;
70953;SDS011;58618;47.490;8.736;2022-09-01T15:02:30;4.32;;;3.20;;
70953;SDS011;58618;47.490;8.736;2022-09-01T15:05:18;3.92;;;3.00;;
70953;SDS011;58618;47.490;8.736;2022-09-01T15:08:06;3.57;;;3.20;;
70953;SDS011;58618;47.490;8.736;2022-09-01T15:10:54;3.40;;;2.92;;
70953;SDS011;58618;47.490;8.736;2022-09-01T15:13:41;6.45;;;3.08;;
70953;SDS011;58618;47.490;8.736;2022-09-01T15:16:30;4.25;;;3.00;;
70953;SDS011;58618;47.490;8.736;2022-09-01T15:19:22;3.40;;;3.00;;
70953;SDS011;58618;47.490;8.736;2022-09-01T15:22:09;5.47;;;2.93;;
70953;SDS011;58618;47.490;8.736;2022-09-01T15:24:57;5.18;;;3.33;;
70953;SDS011;58618;47.490;8.736;2022-09-01T15:27:47;4.70;;;3.33;;
70953;SDS011;58618;47.490;8.736;2022-09-01T15:30:35;4.30;;;3.05;;
70953;SDS011;58618;47.490;8.736;2022-09-01T15:33:23;4.50;;;3.20;;
70953;SDS011;58618;47.490;8.736;2022-09-01T15:36:14;3.83;;;3.20;;
70953;SDS011;58618;47.490;8.736;2022-09-01T15:39:03;4.03;;;3.20;;
70953;SDS011;58618;47.490;8.736;2022-09-01T15:41:50;3.38;;;3.08;;
70953;SDS011;58618;47.490;8.736;2022-09-01T15:44:38;4.57;;;3.00;;
70953;SDS011;58618;47.490;8.736;2022-09-01T15:47:25;3.30;;;2.90;;
70953;SDS011;58618;47.490;8.736;2022-09-01T15:50:13;3.73;;;3.20;;
70953;SDS011;58618;47.490;8.736;2022-09-01T15:53:05;5.20;;;3.30;;
70953;SDS011;58618;47.490;8.736;2022-09-01T15:55:56;3.60;;;3.20;;
70953;SDS011;58618;47.490;8.736;2022-09-01T15:58:44;3.58;;;3.17;;
70953;SDS011;58618;47.490;8.736;2022-09-01T16:01:33;4.80;;;3.10;;
70953;SDS011;58618;47.490;8.736;2022-09-01T16:04:23;3.33;;;3.00;;
70953;SDS011;58618;47.490;8.736;2022-09-01T16:07:11;3.70;;;3.22;;
70953;SDS011;58618;47.490;8.736;2022-09-01T16:09:59;4.72;;;3.47;;
70953;SDS011;58618;47.490;8.736;2022-09-01T16:12:49;3.30;;;3.00;;
70953;SDS011;58618;47.490;8.736;2022-09-01T16:15:37;3.85;;;3.10;;
70953;SDS011;58618;47.490;8.736;2022-09-01T16:18:31;3.57;;;2.90;;
70953;SDS011;58618;47.490;8.736;2022-09-01T16:21:29;4.20;;;3.50;;
70953;SDS011;58618;47.490;8.736;2022-09-01T16:24:24;3.05;;;2.72;;
70953;SDS011;58618;47.490;8.736;2022-09-01T16:27:14;3.97;;;3.25;;
70953;SDS011;58618;47.490;8.736;2022-09-01T16:30:07;3.80;;;3.17;;
70953;SDS011;58618;47.490;8.736;2022-09-01T16:32:57;4.23;;;3.57;;
70953;SDS011;58618;47.490;8.736;2022-09-01T16:35:50;4.78;;;3.10;;
70953;SDS011;58618;47.490;8.736;2022-09-01T16:38:48;4.28;;;3.53;;
70953;SDS011;58618;47.490;8.736;2022-09-01T16:41:43;4.93;;;3.17;;
70953;SDS011;58618;47.490;8.736;2022-09-01T16:44:44;3.20;;;2.80;;
70953;SDS011;58618;47.490;8.736;2022-09-01T16:47:43;4.53;;;3.20;;
70953;SDS011;58618;47.490;8.736;2022-09-01T16:50:41;3.90;;;3.00;;
70953;SDS011;58618;47.490;8.736;2022-09-01T16:53:38;3.20;;;2.90;;
70953;SDS011;58618;47.490;8.736;2022-09-01T16:56:49;5.00;;;3.00;;
70953;SDS011;58618;47.490;8.736;2022-09-01T16:59:44;3.65;;;3.20;;
70953;SDS011;58618;47.490;8.736;2022-09-01T17:02:40;4.03;;;3.30;;
70953;SDS011;58618;47.490;8.736;2022-09-01T17:05:35;3.58;;;3.15;;